Time;durP1;ratioP1;P1;durP2;ratioP2;P2;SDS_P1;SDS_P2;PMS_P1;PMS_P2;Temp;Humidity;BMP_temperature;BMP_pressure;BME280_temperature;BME280_humidity;BME280_pressure;Samples;Min_cycle;Max_cycle;Signal;HPM_P1;HPM_P2
2022/07/31 00:03:53;;;;;;;7.13;5.30;;;;;;;20.83;55.80;98214.38;8031685;29;20238;-81
2022/07/31 00:07:58;;;;;;;5.87;5.23;;;;;;;20.79;55.99;98212.94;8032564;29;20235;-80
2022/07/31 00:12:01;;;;;;;5.80;5.20;;;;;;;20.78;55.52;98217.38;8031994;29;20254;-82
2022/07/31 00:16:04;;;;;;;6.13;5.40;;;;;;;20.78;55.50;98213.94;8032017;29;20246;-82
2022/07/31 00:20:12;;;;;;;6.80;5.50;;;;;;;20.63;55.63;98208.94;8032078;29;20249;-80
2022/07/31 00:24:16;;;;;;;7.73;5.50;;;;;;;20.62;55.56;98203.81;8031939;29;20237;-81
2022/07/31 00:28:19;;;;;;;8.67;5.33;;;;;;;20.63;55.33;98200.22;8031779;29;20243;-82
2022/07/31 00:32:22;;;;;;;10.63;5.60;;;;;;;20.54;55.41;98206.19;8031651;29;20250;-82
2022/07/31 00:36:24;;;;;;;5.90;5.33;;;;;;;20.49;55.70;98203.97;8031599;29;20241;-79
2022/07/31 00:40:33;;;;;;;5.73;5.23;;;;;;;20.51;55.25;98212.56;8031202;29;20241;-81
2022/07/31 00:44:36;;;;;;;8.00;5.17;;;;;;;20.43;55.08;98218.44;8031319;29;20240;-80
2022/07/31 00:48:40;;;;;;;6.70;5.23;;;;;;;20.50;55.06;98208.25;8031375;29;20273;-81
2022/07/31 00:52:43;;;;;;;5.97;5.13;;;;;;;20.45;55.16;98206.00;8031101;29;20243;-80
2022/07/31 00:56:48;;;;;;;6.57;5.50;;;;;;;20.41;55.49;98193.22;8045502;29;20234;-80
2022/07/31 01:00:51;;;;;;;5.70;5.10;;;;;;;20.42;55.37;98197.53;8061101;29;20260;-81
2022/07/31 01:04:54;;;;;;;5.80;5.20;;;;;;;20.36;55.60;98192.75;8061495;29;20234;-81
2022/07/31 01:08:57;;;;;;;6.10;5.50;;;;;;;20.37;55.64;98200.53;8061226;29;20422;-81
2022/07/31 01:13:07;;;;;;;6.30;5.70;;;;;;;20.35;55.19;98202.44;8060763;29;20242;-80
2022/07/31 01:17:10;;;;;;;7.63;5.10;;;;;;;20.25;55.26;98202.34;8060945;29;20226;-80
2022/07/31 01:21:17;;;;;;;5.80;5.20;;;;;;;20.27;55.08;98204.84;8060846;29;20241;-80
2022/07/31 01:25:32;;;;;;;5.70;5.17;;;;;;;20.24;54.99;98199.84;8060691;29;20247;-80
2022/07/31 01:29:39;;;;;;;6.27;5.30;;;;;;;20.26;54.96;98208.44;8060591;29;20249;-80
2022/07/31 01:33:46;;;;;;;6.10;5.50;;;;;;;20.15;55.08;98211.94;8060345;29;20252;-77
2022/07/31 01:37:53;;;;;;;6.63;4.90;;;;;;;20.11;55.10;98207.88;8059818;29;20249;-78
2022/07/31 01:41:56;;;;;;;7.17;5.20;;;;;;;20.10;55.15;98212.31;8059889;29;20560;-76
2022/07/31 01:46:03;;;;;;;7.37;5.10;;;;;;;20.10;54.89;98211.44;8059715;29;20241;-76
2022/07/31 01:50:07;;;;;;;5.70;5.10;;;;;;;20.03;55.40;98219.00;8058975;29;20238;-76
2022/07/31 01:54:31;;;;;;;5.30;4.80;;;;;;;19.99;55.17;98206.22;8059820;29;20235;-78
2022/07/31 01:58:36;;;;;;;5.73;5.03;;;;;;;20.00;55.38;98210.53;8059805;29;20234;-77
2022/07/31 02:02:42;;;;;;;6.47;5.50;;;;;;;19.96;55.54;98206.47;8059604;29;20234;-75
2022/07/31 02:06:47;;;;;;;6.83;5.50;;;;;;;19.93;55.55;98207.53;8059639;29;20253;-77
2022/07/31 02:10:51;;;;;;;6.63;5.93;;;;;;;19.88;55.41;98196.56;8035799;29;20238;-77
2022/07/31 02:14:55;;;;;;;7.00;5.27;;;;;;;19.83;55.24;98196.91;8028561;29;20251;-77
2022/07/31 02:18:59;;;;;;;5.60;5.10;;;;;;;19.80;55.25;98189.28;8028921;29;20403;-77
2022/07/31 02:23:02;;;;;;;6.00;5.40;;;;;;;19.83;55.36;98194.28;8028692;29;20241;-78
2022/07/31 02:27:05;;;;;;;6.00;5.33;;;;;;;19.82;55.26;98190.00;8028281;29;20534;-77
2022/07/31 02:31:30;;;;;;;5.60;5.10;;;;;;;19.78;55.35;98191.19;8028507;29;20250;-78
2022/07/31 02:35:34;;;;;;;5.83;5.23;;;;;;;19.80;55.21;98193.69;8028800;29;20562;-78
2022/07/31 02:39:38;;;;;;;6.80;5.50;;;;;;;19.73;55.67;98186.28;8028998;29;20319;-77
2022/07/31 02:43:41;;;;;;;6.17;5.57;;;;;;;19.68;55.92;98188.41;8028441;29;20231;-77
2022/07/31 02:47:44;;;;;;;6.13;5.50;;;;;;;19.69;55.76;98184.00;8028608;29;20239;-77
2022/07/31 02:51:48;;;;;;;6.20;5.60;;;;;;;19.63;55.66;98182.69;8028644;29;20247;-76
2022/07/31 02:55:51;;;;;;;6.57;5.60;;;;;;;19.61;55.62;98179.34;8028093;29;20231;-77
2022/07/31 02:59:54;;;;;;;6.93;5.40;;;;;;;19.65;55.57;98179.94;8028791;29;20264;-77
2022/07/31 03:03:57;;;;;;;6.83;5.20;;;;;;;19.59;55.50;98183.03;8034444;29;20246;-73
2022/07/31 03:08:01;;;;;;;5.60;4.63;;;;;;;19.54;55.49;98181.59;8034247;29;20235;-75
2022/07/31 03:12:05;;;;;;;6.20;4.97;;;;;;;19.52;55.55;98180.06;8033996;29;20237;-78
2022/07/31 03:16:10;;;;;;;7.63;6.10;;;;;;;19.49;55.64;98182.91;8034145;29;20232;-77
2022/07/31 03:20:15;;;;;;;9.13;5.87;;;;;;;19.56;55.58;98180.66;8033655;29;20548;-78
2022/07/31 03:24:19;;;;;;;5.40;4.90;;;;;;;19.56;55.33;98175.41;8033734;29;20239;-78
2022/07/31 03:28:22;;;;;;;7.87;4.87;;;;;;;19.47;55.38;98187.44;8033402;29;20250;-77
2022/07/31 03:32:25;;;;;;;5.17;4.60;;;;;;;19.42;55.21;98179.94;8033602;29;20270;-77
2022/07/31 03:36:29;;;;;;;5.40;4.90;;;;;;;19.47;55.27;98176.94;8033323;29;20509;-77
2022/07/31 03:40:33;;;;;;;5.57;4.93;;;;;;;19.40;55.38;98181.00;8033295;29;20242;-77
2022/07/31 03:44:37;;;;;;;7.30;5.63;;;;;;;19.38;55.47;98165.38;8033011;29;20239;-77
2022/07/31 03:48:40;;;;;;;7.20;6.33;;;;;;;19.26;56.16;98175.00;8032478;29;20239;-77
2022/07/31 03:52:44;;;;;;;6.93;5.60;;;;;;;19.23;56.44;98170.03;8032973;29;20241;-77
2022/07/31 03:56:50;;;;;;;6.37;5.77;;;;;;;19.24;56.64;98176.94;8032057;29;20230;-75
2022/07/31 04:00:53;;;;;;;10.93;6.80;;;;;;;19.33;56.81;98178.84;8032797;29;20250;-77
2022/07/31 04:04:57;;;;;;;9.60;7.03;;;;;;;19.23;57.17;98174.41;8032721;29;20253;-76
2022/07/31 04:09:00;;;;;;;9.87;6.80;;;;;;;19.37;56.97;98179.44;8032499;29;20247;-77
2022/07/31 04:13:18;;;;;;;9.40;8.30;;;;;;;19.36;57.07;98183.03;8031511;29;20250;-77
2022/07/31 04:17:21;;;;;;;8.90;8.10;;;;;;;19.22;57.90;98184.09;8032161;29;20236;-77
2022/07/31 04:21:24;;;;;;;9.07;8.17;;;;;;;19.34;57.59;98191.03;8032101;29;20239;-78
2022/07/31 04:25:26;;;;;;;9.07;7.80;;;;;;;19.58;57.11;98197.13;8031938;29;20245;-77
2022/07/31 04:29:30;;;;;;;8.97;8.07;;;;;;;19.48;57.51;98192.59;8031628;29;20242;-78
2022/07/31 04:33:33;;;;;;;9.87;7.50;;;;;;;19.39;58.27;98189.84;8031546;29;20258;-77
2022/07/31 04:37:49;;;;;;;8.83;7.80;;;;;;;19.54;57.61;98183.41;8031375;29;20238;-78
2022/07/31 04:41:52;;;;;;;9.77;8.20;;;;;;;19.59;57.81;98194.41;8031563;29;20240;-79
2022/07/31 04:45:57;;;;;;;8.53;7.70;;;;;;;19.80;56.91;98194.53;8031494;29;20430;-80
2022/07/31 04:49:59;;;;;;;8.07;7.37;;;;;;;19.87;56.72;98192.25;8031416;29;20528;-80
2022/07/31 04:54:02;;;;;;;8.53;7.20;;;;;;;19.97;56.81;98190.59;8031132;29;20254;-79
2022/07/31 04:58:05;;;;;;;9.93;8.07;;;;;;;19.87;56.60;98192.25;8030889;29;20238;-80
2022/07/31 05:02:09;;;;;;;9.17;8.27;;;;;;;19.96;56.69;98199.41;8031122;29;20239;-80
2022/07/31 05:06:13;;;;;;;9.63;8.40;;;;;;;19.97;57.00;98198.47;8030917;29;20237;-80
2022/07/31 05:14:32;;;;;;;9.50;8.60;;;;;;;19.82;58.04;98197.03;8029604;29;20239;-80
2022/07/31 05:18:36;;;;;;;10.67;8.83;;;;;;;19.97;57.89;98195.84;8030508;29;20242;-80
2022/07/31 05:22:39;;;;;;;9.20;8.27;;;;;;;20.01;57.64;98197.25;8030474;29;20243;-80
2022/07/31 05:26:42;;;;;;;9.00;8.20;;;;;;;20.19;57.39;98202.00;8029187;29;20246;-79
2022/07/31 05:30:45;;;;;;;9.30;8.43;;;;;;;20.26;56.84;98195.31;8030303;29;20241;-79
2022/07/31 05:34:49;;;;;;;9.27;8.37;;;;;;;20.36;56.91;98204.13;8029689;29;20246;-80
2022/07/31 05:38:52;;;;;;;9.43;8.57;;;;;;;20.59;56.48;98196.16;8029920;29;20236;-79
2022/07/31 05:42:55;;;;;;;9.77;8.77;;;;;;;20.34;56.96;98192.06;8029609;29;20247;-77
2022/07/31 05:46:58;;;;;;;9.40;8.50;;;;;;;20.67;56.69;98188.47;8029806;29;20255;-79
2022/07/31 05:51:01;;;;;;;11.87;8.73;;;;;;;20.73;56.49;98195.88;8029598;29;20244;-80
2022/07/31 05:55:08;;;;;;;9.03;8.17;;;;;;;20.85;56.54;98191.41;8029546;29;20257;-80
2022/07/31 05:59:11;;;;;;;10.50;8.70;;;;;;;20.58;56.88;98189.22;8029386;29;20230;-80
2022/07/31 06:03:15;;;;;;;9.27;8.37;;;;;;;20.70;57.15;98196.13;8029382;29;20252;-80
2022/07/31 06:07:19;;;;;;;9.00;8.10;;;;;;;20.80;56.94;98202.31;8029259;29;20239;-75
2022/07/31 06:11:22;;;;;;;9.27;8.37;;;;;;;20.88;56.44;98202.50;8028980;29;20243;-77
2022/07/31 06:15:25;;;;;;;10.33;9.33;;;;;;;20.88;56.92;98202.50;8029284;29;20241;-77
2022/07/31 06:19:28;;;;;;;11.13;9.77;;;;;;;20.54;57.79;98206.19;8028935;29;20246;-77
2022/07/31 06:23:32;;;;;;;10.70;9.20;;;;;;;20.79;57.01;98203.28;8028974;29;20243;-77
2022/07/31 06:27:35;;;;;;;8.43;7.63;;;;;;;21.34;56.13;98207.50;8028698;29;20475;-78
2022/07/31 06:31:40;;;;;;;9.33;8.43;;;;;;;21.34;56.14;98210.97;8029030;29;20234;-80
2022/07/31 06:35:43;;;;;;;9.17;7.60;;;;;;;21.66;56.09;98212.69;8030771;29;20466;-80
2022/07/31 06:39:47;;;;;;;9.73;8.70;;;;;;;21.28;56.53;98217.63;8035321;29;20319;-79
2022/07/31 06:43:58;;;;;;;8.73;7.63;;;;;;;21.57;56.25;98214.34;8034872;29;20272;-80
2022/07/31 06:48:01;;;;;;;9.90;8.63;;;;;;;21.24;57.09;98213.53;8035194;29;20247;-80
2022/07/31 06:52:04;;;;;;;11.90;9.13;;;;;;;21.56;56.23;98209.19;8034955;29;20242;-80
2022/07/31 06:56:09;;;;;;;11.50;8.80;;;;;;;21.40;57.11;98204.34;8025288;29;20289;-80
2022/07/31 07:00:13;;;;;;;11.67;9.87;;;;;;;21.55;56.51;98207.50;8033747;29;20237;-80
2022/07/31 07:04:22;;;;;;;8.87;7.97;;;;;;;21.95;55.97;98193.50;8061862;29;20237;-79
2022/07/31 07:08:45;;;;;;;8.47;7.67;;;;;;;21.98;55.10;98201.16;8065184;29;20240;-81
2022/07/31 07:12:50;;;;;;;9.93;8.90;;;;;;;21.45;56.46;98203.03;8064130;29;20234;-79
2022/07/31 07:16:55;;;;;;;9.77;8.27;;;;;;;21.52;57.04;98205.97;8064711;29;20230;-78
2022/07/31 07:20:59;;;;;;;8.80;7.90;;;;;;;21.60;56.24;98203.50;8064502;29;20234;-78
2022/07/31 07:25:02;;;;;;;8.77;7.70;;;;;;;22.44;54.79;98202.38;8064107;29;20253;-79
2022/07/31 07:29:06;;;;;;;9.77;8.77;;;;;;;22.54;53.46;98197.97;8063931;29;20268;-79
2022/07/31 07:33:09;;;;;;;8.30;7.10;;;;;;;23.27;51.73;98192.22;8063951;29;20241;-79
2022/07/31 07:37:12;;;;;;;9.00;6.97;;;;;;;23.42;51.53;98195.25;8064014;29;20233;-81
2022/07/31 07:41:15;;;;;;;6.83;5.83;;;;;;;23.69;49.49;98189.16;8063778;29;20275;-81
2022/07/31 07:45:21;;;;;;;7.57;6.67;;;;;;;24.15;48.86;98190.06;8064207;29;20241;-79
2022/07/31 07:49:24;;;;;;;7.93;5.67;;;;;;;24.45;47.89;98188.06;8062901;29;20237;-79
2022/07/31 07:53:27;;;;;;;4.90;4.40;;;;;;;25.09;45.08;98194.09;8063487;29;20249;-81
2022/07/31 07:57:30;;;;;;;5.87;4.90;;;;;;;25.35;44.91;98188.00;8060594;29;20236;-79
2022/07/31 08:01:34;;;;;;;5.93;4.30;;;;;;;25.13;43.22;98192.81;8063032;29;20238;-83
2022/07/31 08:05:38;;;;;;;11.97;4.57;;;;;;;24.96;44.41;98191.03;8055549;29;20244;-79
2022/07/31 08:09:40;;;;;;;6.03;4.00;;;;;;;25.01;45.16;98177.31;8048092;29;20428;-78
2022/07/31 08:13:43;;;;;;;8.93;5.30;;;;;;;24.80;45.38;98173.16;8047389;29;20289;-77
2022/07/31 08:17:53;;;;;;;7.03;3.90;;;;;;;25.15;45.15;98169.63;8047379;29;20248;-78
2022/07/31 08:21:56;;;;;;;6.70;4.47;;;;;;;24.71;45.40;98172.28;8047225;29;20241;-75
2022/07/31 08:25:59;;;;;;;7.83;5.13;;;;;;;25.01;44.28;98177.31;8047301;29;20226;-74
2022/07/31 08:30:02;;;;;;;6.13;4.27;;;;;;;25.11;45.05;98181.53;8047224;29;20250;-74
2022/07/31 08:34:06;;;;;;;11.13;4.03;;;;;;;25.28;45.01;98173.69;8046859;29;20256;-74
2022/07/31 08:38:09;;;;;;;5.73;4.80;;;;;;;24.71;44.16;98171.44;8047095;29;20239;-74
2022/07/31 08:42:12;;;;;;;5.73;4.53;;;;;;;25.44;42.88;98167.69;8047026;29;20231;-74
2022/07/31 08:46:15;;;;;;;6.87;4.20;;;;;;;25.82;42.83;98157.56;8047157;29;20239;-74
2022/07/31 08:50:20;;;;;;;5.40;3.57;;;;;;;25.94;43.04;98162.44;8046866;29;20236;-76
2022/07/31 08:54:26;;;;;;;7.90;4.40;;;;;;;26.07;41.88;98151.38;8033265;29;20425;-74
2022/07/31 08:58:29;;;;;;;5.00;3.60;;;;;;;25.79;42.40;98149.94;8038466;29;20247;-74
2022/07/31 09:02:32;;;;;;;6.47;3.93;;;;;;;26.07;41.91;98142.59;8031374;29;20530;-75
2022/07/31 09:06:36;;;;;;;6.17;3.80;;;;;;;27.07;39.24;98135.34;8030161;29;20253;-75
2022/07/31 09:10:39;;;;;;;9.27;3.70;;;;;;;27.20;39.79;98131.31;8030895;29;20241;-74
2022/07/31 09:14:49;;;;;;;8.57;4.10;;;;;;;27.25;37.25;98127.19;8037786;29;20246;-75
2022/07/31 09:18:56;;;;;;;5.27;3.37;;;;;;;28.30;35.73;98131.38;8030799;29;20238;-74
2022/07/31 09:23:08;;;;;;;7.87;3.30;;;;;;;28.68;33.33;98130.63;8030692;29;20231;-74
2022/07/31 09:27:12;;;;;;;4.00;3.10;;;;;;;29.09;34.39;98125.72;8030513;29;20247;-74
2022/07/31 09:31:15;;;;;;;5.73;2.93;;;;;;;29.33;33.47;98127.34;8030821;29;20241;-74
2022/07/31 09:35:18;;;;;;;3.50;2.73;;;;;;;29.64;32.02;98110.28;8030122;29;20308;-74
2022/07/31 09:39:22;;;;;;;4.73;2.50;;;;;;;29.85;31.66;98112.22;8030112;29;20240;-74
2022/07/31 09:43:29;;;;;;;8.07;2.40;;;;;;;30.09;30.57;98105.69;8030226;29;20242;-74
2022/07/31 09:47:33;;;;;;;4.57;2.50;;;;;;;30.49;29.54;98116.00;8030003;29;20422;-74
2022/07/31 09:51:40;;;;;;;3.13;2.33;;;;;;;30.51;28.83;98101.41;8029947;29;20423;-74
2022/07/31 09:55:50;;;;;;;7.00;2.37;;;;;;;29.29;30.93;98103.91;8030960;29;20428;-72
2022/07/31 09:59:53;;;;;;;3.13;2.30;;;;;;;30.37;30.18;98108.47;8037764;29;20419;-73
2022/07/31 10:03:59;;;;;;;4.00;2.30;;;;;;;30.93;29.20;98093.53;8029653;29;20238;-73
2022/07/31 10:08:02;;;;;;;3.30;2.10;;;;;;;30.90;29.20;98078.72;8029287;29;20249;-72
2022/07/31 10:12:10;;;;;;;3.33;2.10;;;;;;;31.02;28.72;98078.19;8028875;29;20439;-73
2022/07/31 10:16:21;;;;;;;2.70;1.70;;;;;;;31.38;26.96;98065.41;8028962;29;20241;-73
2022/07/31 10:20:24;;;;;;;2.87;1.67;;;;;;;31.09;27.11;98071.00;8029042;29;20235;-73
2022/07/31 10:24:29;;;;;;;1.87;1.53;;;;;;;31.02;27.33;98075.50;8028875;29;20263;-72
2022/07/31 10:28:37;;;;;;;2.87;1.60;;;;;;;30.24;28.00;98072.78;8029049;29;20253;-72
2022/07/31 10:32:40;;;;;;;4.13;2.07;;;;;;;29.22;29.93;98074.47;8029495;29;20241;-72
2022/07/31 10:36:45;;;;;;;5.27;1.97;;;;;;;28.93;30.33;98078.75;8029093;29;20259;-71
2022/07/31 10:40:52;;;;;;;4.50;1.67;;;;;;;28.68;30.00;98072.84;8028156;29;20236;-74
2022/07/31 10:45:05;;;;;;;3.30;1.90;;;;;;;28.18;29.81;98076.88;8029135;29;20239;-72
2022/07/31 10:49:08;;;;;;;3.47;1.83;;;;;;;28.31;30.36;98076.28;8028867;29;20242;-71
2022/07/31 10:53:13;;;;;;;2.60;1.70;;;;;;;28.31;30.93;98077.13;8028506;29;20465;-71
2022/07/31 10:57:21;;;;;;;3.80;1.90;;;;;;;28.37;29.92;98072.88;8028617;29;20234;-72
2022/07/31 11:01:26;;;;;;;4.40;1.67;;;;;;;28.41;30.51;98067.03;8028333;29;20234;-73
2022/07/31 11:05:28;;;;;;;2.00;1.57;;;;;;;28.55;30.17;98070.78;8028494;29;20245;-73
2022/07/31 11:09:31;;;;;;;4.60;1.60;;;;;;;29.58;28.44;98050.50;8028939;29;20576;-72
2022/07/31 11:13:54;;;;;;;1.90;1.40;;;;;;;29.39;28.49;98045.75;8028426;29;20233;-75
2022/07/31 11:17:59;;;;;;;1.63;1.47;;;;;;;28.85;28.97;98044.19;8028237;29;20242;-74
2022/07/31 11:22:22;;;;;;;3.00;1.30;;;;;;;28.95;28.94;98038.59;8030902;29;20238;-83
2022/07/31 11:26:34;;;;;;;3.60;1.40;;;;;;;30.69;26.33;98035.97;8033949;29;20529;-79
2022/07/31 11:30:51;;;;;;;4.40;1.63;;;;;;;30.92;26.08;98041.91;8033991;29;20248;-81
2022/07/31 11:34:56;;;;;;;3.50;1.63;;;;;;;31.15;25.17;98028.25;8033521;29;20246;-80
2022/07/31 11:39:00;;;;;;;2.70;1.47;;;;;;;31.49;26.18;98029.25;8034457;29;20445;-80
2022/07/31 11:43:08;;;;;;;1.60;1.30;;;;;;;31.14;25.04;98025.78;8022948;29;20251;-80
2022/07/31 11:47:37;;;;;;;3.00;1.20;;;;;;;31.25;25.92;98019.06;8032759;29;20278;-80
2022/07/31 11:52:01;;;;;;;2.13;1.40;;;;;;;31.68;24.63;98027.69;8063730;29;20519;-80
2022/07/31 11:56:04;;;;;;;3.47;1.20;;;;;;;31.64;22.95;98018.38;8063330;29;20246;-79
2022/07/31 12:00:10;;;;;;;1.40;1.20;;;;;;;32.44;23.66;98010.44;8063896;29;20245;-80
2022/07/31 12:04:32;;;;;;;1.50;1.20;;;;;;;31.46;24.74;98015.44;8063540;29;20247;-80
2022/07/31 12:08:37;;;;;;;2.37;1.37;;;;;;;31.60;24.54;98000.25;8063688;29;20234;-78
2022/07/31 12:12:41;;;;;;;4.30;1.20;;;;;;;30.64;25.72;98007.16;8063416;29;20253;-78
2022/07/31 12:16:44;;;;;;;1.93;1.30;;;;;;;30.13;26.91;97994.81;8063339;29;20237;-78
2022/07/31 12:20:52;;;;;;;3.10;1.60;;;;;;;30.09;26.15;97998.91;8063443;29;20245;-78
2022/07/31 12:25:00;;;;;;;3.30;1.80;;;;;;;30.03;27.04;97994.34;8062586;29;20233;-78
2022/07/31 12:29:10;;;;;;;2.87;1.57;;;;;;;30.27;26.64;97984.25;8062832;29;20262;-80
2022/07/31 12:33:13;;;;;;;2.13;1.33;;;;;;;29.74;26.42;97981.94;8062357;29;20243;-80
2022/07/31 12:37:18;;;;;;;1.93;1.47;;;;;;;29.44;27.62;97984.69;8062673;29;20236;-81
2022/07/31 12:41:23;;;;;;;4.03;1.97;;;;;;;29.38;27.69;97978.25;8063089;29;20243;-85
2022/07/31 12:45:31;;;;;;;3.47;1.60;;;;;;;29.64;27.13;97979.53;8063868;29;20249;-78
2022/07/31 12:49:35;;;;;;;3.77;1.37;;;;;;;30.22;27.83;97960.81;8062264;29;20525;-81
2022/07/31 12:53:37;;;;;;;3.97;1.80;;;;;;;30.22;26.93;97966.16;8062156;29;20231;-82
2022/07/31 12:57:42;;;;;;;3.40;1.57;;;;;;;29.68;27.23;97962.13;8061687;29;20241;-84
2022/07/31 13:01:53;;;;;;;3.97;1.70;;;;;;;29.33;27.61;97961.97;8035765;29;20229;-80
2022/07/31 13:05:56;;;;;;;2.37;1.60;;;;;;;29.38;27.85;97959.59;8001165;29;20243;-81
2022/07/31 13:09:59;;;;;;;5.83;2.00;;;;;;;29.22;27.92;97957.94;8001314;29;20232;-81
2022/07/31 13:14:23;;;;;;;4.03;2.00;;;;;;;29.38;28.33;97956.09;8000276;29;20233;-80
2022/07/31 13:18:28;;;;;;;3.97;2.10;;;;;;;29.72;27.79;97958.09;8000615;29;20553;-80
2022/07/31 13:22:31;;;;;;;3.33;1.70;;;;;;;29.58;27.36;97953.63;8000508;29;20242;-80
2022/07/31 13:26:34;;;;;;;3.43;1.70;;;;;;;29.58;28.47;97953.63;7998978;29;20237;-75
2022/07/31 13:30:39;;;;;;;6.07;1.90;;;;;;;29.33;28.01;97953.97;7993758;29;20243;-79
2022/07/31 13:34:41;;;;;;;4.10;1.70;;;;;;;29.36;28.59;97950.94;7994295;29;20231;-78
2022/07/31 13:38:44;;;;;;;2.30;1.43;;;;;;;29.27;28.01;97945.91;7995630;29;20236;-86
2022/07/31 13:42:47;;;;;;;8.90;2.47;;;;;;;28.96;28.47;97952.25;7996038;29;20245;-80
2022/07/31 13:46:51;;;;;;;4.60;1.97;;;;;;;29.15;28.82;97949.06;7994482;29;20236;-91
2022/07/31 13:50:53;;;;;;;4.73;1.97;;;;;;;29.16;29.05;97944.56;8015473;29;20233;-88
2022/07/31 13:54:56;;;;;;;4.23;1.70;;;;;;;28.83;29.17;97936.94;8040178;29;20238;-90
2022/07/31 13:58:59;;;;;;;3.37;1.60;;;;;;;28.81;29.73;97937.13;8049227;29;20243;-88
2022/07/31 14:03:03;;;;;;;5.87;1.57;;;;;;;28.63;29.49;97936.69;8054670;29;20249;-85
2022/07/31 14:07:07;;;;;;;2.33;1.70;;;;;;;28.35;29.76;97939.09;8053669;29;20441;-80
2022/07/31 14:11:11;;;;;;;3.00;1.70;;;;;;;28.35;30.60;97921.31;8053538;29;20230;-75
2022/07/31 14:15:17;;;;;;;2.23;1.50;;;;;;;28.11;31.01;97925.03;8053961;29;20316;-80
2022/07/31 14:19:22;;;;;;;3.53;1.60;;;;;;;28.11;30.48;97921.56;8054532;29;20285;-82
2022/07/31 14:23:24;;;;;;;4.23;1.80;;;;;;;27.93;30.37;97916.53;8053957;29;20242;-82
2022/07/31 14:27:37;;;;;;;4.93;1.60;;;;;;;27.94;30.66;97921.69;8054017;29;20562;-82
2022/07/31 14:31:40;;;;;;;7.03;1.97;;;;;;;27.96;31.28;97922.34;8053925;29;20233;-79
2022/07/31 14:35:44;;;;;;;5.27;1.50;;;;;;;27.88;31.32;97917.91;8053917;29;20241;-80
2022/07/31 14:39:56;;;;;;;3.37;1.70;;;;;;;27.72;30.93;97920.69;8053841;29;20349;-85
2022/07/31 14:43:59;;;;;;;2.33;1.33;;;;;;;27.73;31.29;97924.16;8053698;29;20251;-83
2022/07/31 14:48:02;;;;;;;2.67;1.67;;;;;;;27.87;31.20;97921.56;8053439;29;20240;-84
2022/07/31 14:52:06;;;;;;;4.03;1.60;;;;;;;27.89;31.50;97916.06;8053510;29;20247;-86
2022/07/31 14:56:09;;;;;;;2.47;1.57;;;;;;;28.07;31.26;97910.44;8054024;29;20251;-82
2022/07/31 15:00:13;;;;;;;2.67;1.70;;;;;;;28.18;30.92;97912.66;8058850;29;20236;-85
2022/07/31 15:04:16;;;;;;;3.83;1.80;;;;;;;28.44;30.51;97898.06;8058934;29;20235;-87
2022/07/31 15:08:20;;;;;;;7.33;2.40;;;;;;;28.57;30.97;97890.28;8059036;29;20244;-88
2022/07/31 15:12:23;;;;;;;4.80;1.80;;;;;;;28.58;30.67;97888.47;8058465;29;20248;-82
2022/07/31 15:16:26;;;;;;;3.23;1.63;;;;;;;28.45;31.18;97881.09;8058075;29;20244;-82
2022/07/31 15:20:29;;;;;;;3.93;1.87;;;;;;;28.47;30.36;97892.38;8057819;29;20439;-84
2022/07/31 15:24:36;;;;;;;6.83;2.10;;;;;;;28.43;29.90;97886.59;8057982;29;20264;-81
2022/07/31 15:28:44;;;;;;;2.80;1.97;;;;;;;28.70;30.11;97878.97;8055270;29;20268;-82
2022/07/31 15:32:57;;;;;;;7.93;1.90;;;;;;;28.84;29.49;97879.97;8060351;29;20244;-83
2022/07/31 15:37:01;;;;;;;3.37;1.67;;;;;;;29.31;28.17;97875.19;8054913;29;20516;-87
2022/07/31 15:41:06;;;;;;;3.00;1.70;;;;;;;29.35;28.04;97866.59;8057747;29;20237;-79
2022/07/31 15:45:10;;;;;;;3.03;1.83;;;;;;;29.38;28.80;97865.41;8056669;29;20236;-80
2022/07/31 15:49:13;;;;;;;3.83;1.97;;;;;;;28.82;29.03;97852.69;8056147;29;20338;-80
2022/07/31 15:53:16;;;;;;;4.87;1.43;;;;;;;29.27;28.23;97853.41;8057766;29;20237;-80
2022/07/31 15:57:20;;;;;;;13.13;2.17;;;;;;;29.67;29.03;97850.28;8060972;29;20234;-80
2022/07/31 16:01:26;;;;;;;2.00;1.23;;;;;;;29.50;28.31;97855.06;8061505;29;20244;-78
2022/07/31 16:05:29;;;;;;;2.93;1.73;;;;;;;29.41;28.12;97839.16;8061563;29;20291;-85
2022/07/31 16:09:40;;;;;;;4.63;2.00;;;;;;;29.66;28.05;97835.28;8057271;29;20249;-84
2022/07/31 16:14:04;;;;;;;3.40;1.80;;;;;;;29.32;28.43;97829.66;8041793;29;20239;-81
2022/07/31 16:18:06;;;;;;;4.20;3.20;;;;;;;28.98;28.80;97827.66;8059752;29;20239;-77
2022/07/31 16:22:19;;;;;;;2.70;1.70;;;;;;;28.84;29.47;97814.19;8057444;29;20258;-83
2022/07/31 16:26:22;;;;;;;8.90;4.73;;;;;;;28.65;29.77;97818.28;8056485;29;20246;-79
2022/07/31 16:30:26;;;;;;;6.40;3.77;;;;;;;28.81;29.42;97819.88;8055808;29;20247;-86
2022/07/31 16:34:29;;;;;;;5.13;3.50;;;;;;;28.77;29.30;97817.75;8059138;29;20241;-82
2022/07/31 16:38:32;;;;;;;4.43;1.80;;;;;;;28.54;29.74;97809.91;8059850;29;20476;-80
2022/07/31 16:42:34;;;;;;;972.90;570.87;;;;;;;28.56;29.73;97807.88;8055517;29;20251;-76
2022/07/31 16:46:39;;;;;;;561.40;424.80;;;;;;;28.55;29.68;97795.59;8060405;29;20316;-80
2022/07/31 16:50:42;;;;;;;82.23;59.33;;;;;;;28.74;30.29;97792.34;8064028;29;20238;-84
2022/07/31 16:54:45;;;;;;;13.97;10.10;;;;;;;28.75;29.70;97786.00;8063909;29;20420;-81
2022/07/31 16:58:48;;;;;;;20.53;15.03;;;;;;;28.90;29.58;97782.44;8062399;29;20240;-79
2022/07/31 17:02:57;;;;;;;8.70;6.00;;;;;;;28.91;29.81;97784.13;8062830;29;20234;-81
2022/07/31 17:07:00;;;;;;;4.00;2.60;;;;;;;28.86;29.72;97782.00;8064129;29;20565;-79
2022/07/31 17:11:03;;;;;;;9.97;6.10;;;;;;;28.94;30.12;97776.56;8059091;29;20729;-80
2022/07/31 17:15:06;;;;;;;5.07;3.03;;;;;;;28.91;29.94;97773.47;8061567;29;20518;-80
2022/07/31 17:19:11;;;;;;;7.20;3.30;;;;;;;28.90;30.27;97769.13;8059195;29;20241;-82
2022/07/31 17:23:14;;;;;;;4.17;2.17;;;;;;;28.72;29.47;97777.56;8064052;29;20266;-77
2022/07/31 17:27:18;;;;;;;8.57;2.70;;;;;;;28.63;30.66;97777.66;8034034;29;20245;-77
2022/07/31 17:31:21;;;;;;;2.47;1.70;;;;;;;28.62;30.28;97770.69;8044608;29;20239;-81
2022/07/31 17:35:25;;;;;;;3.10;1.80;;;;;;;28.61;29.72;97774.34;8034858;29;20237;-83
2022/07/31 17:39:28;;;;;;;7.07;2.00;;;;;;;28.69;29.57;97776.06;8034399;29;20235;-79
2022/07/31 17:43:33;;;;;;;3.63;2.20;;;;;;;28.69;30.07;97770.75;8033835;29;20501;-82
2022/07/31 17:47:54;;;;;;;3.60;2.40;;;;;;;28.62;30.33;97770.69;8026343;29;20256;-77
2022/07/31 17:52:07;;;;;;;5.43;2.47;;;;;;;28.55;30.37;97772.44;8033427;29;20325;-79
2022/07/31 17:56:10;;;;;;;3.20;1.73;;;;;;;28.49;30.23;97781.16;8032453;29;20236;-80
2022/07/31 18:00:15;;;;;;;4.17;1.87;;;;;;;28.47;31.25;97776.03;8033610;29;20248;-79
2022/07/31 18:04:18;;;;;;;4.90;2.07;;;;;;;28.45;30.58;97778.03;8033468;29;20241;-79
2022/07/31 18:08:22;;;;;;;2.80;1.67;;;;;;;28.42;30.90;97778.41;8033344;29;20241;-79
2022/07/31 18:12:25;;;;;;;2.97;1.53;;;;;;;28.40;31.34;97776.94;8048871;29;20237;-82
2022/07/31 18:16:28;;;;;;;17.63;12.13;;;;;;;28.34;31.51;97777.69;8061490;29;20241;-82
2022/07/31 18:20:32;;;;;;;10.67;5.50;;;;;;;28.23;31.03;97776.31;8061334;29;20500;-81
2022/07/31 18:24:36;;;;;;;14.13;10.67;;;;;;;28.35;32.05;97782.00;8060940;29;20241;-81
2022/07/31 18:28:39;;;;;;;324.60;290.53;;;;;;;28.22;31.38;97770.19;8060949;29;20249;-82
2022/07/31 18:32:42;;;;;;;918.93;733.20;;;;;;;28.30;32.61;97769.25;8060478;29;20233;-81
2022/07/31 18:36:47;;;;;;;1318.13;959.47;;;;;;;28.36;32.80;97773.84;8060729;29;20300;-79
2022/07/31 18:40:58;;;;;;;1039.40;852.13;;;;;;;28.54;33.28;97772.63;8060079;29;20246;-81
2022/07/31 18:45:01;;;;;;;638.53;567.80;;;;;;;28.53;33.11;97771.81;8060774;29;20260;-80
2022/07/31 18:49:04;;;;;;;912.10;592.40;;;;;;;28.49;33.33;97777.69;8060619;29;20526;-80
2022/07/31 18:53:07;;;;;;;135.37;116.40;;;;;;;28.40;33.83;97776.94;8060376;29;20424;-80
2022/07/31 18:57:12;;;;;;;35.83;32.07;;;;;;;28.31;33.63;97778.06;8060403;29;20392;-80
2022/07/31 19:01:14;;;;;;;27.43;19.70;;;;;;;28.16;34.19;97775.41;8060784;29;20534;-79
2022/07/31 19:05:17;;;;;;;19.43;14.50;;;;;;;28.06;34.11;97778.34;8060903;29;20236;-77
2022/07/31 19:09:24;;;;;;;6.70;5.43;;;;;;;27.99;33.72;97780.94;8060562;29;20243;-81
2022/07/31 19:13:28;;;;;;;24.13;19.67;;;;;;;27.87;35.10;97779.69;8061161;29;20234;-84
2022/07/31 19:17:33;;;;;;;21.90;19.53;;;;;;;27.76;36.21;97775.66;8061646;29;20240;-79